createdAt,value
2022-09-24T00:02:16.961Z,5.27
2022-09-24T00:05:02.576Z,4.10
2022-09-24T00:07:47.756Z,4.43
2022-09-24T00:10:40.476Z,4.83
2022-09-24T00:13:26.003Z,3.92
2022-09-24T00:16:13.983Z,4.83
2022-09-24T00:19:00.753Z,5.57
2022-09-24T00:21:46.431Z,3.93
2022-09-24T00:24:50.265Z,4.40
2022-09-24T00:27:35.488Z,5.07
2022-09-24T00:30:20.852Z,4.33
2022-09-24T00:33:06.535Z,3.87
2022-09-24T00:35:52.712Z,3.70
2022-09-24T00:38:38.077Z,3.90
2022-09-24T00:41:26.589Z,4.93
2022-09-24T00:44:46.298Z,5.10
2022-09-24T00:47:40.979Z,3.87
2022-09-24T00:50:31.644Z,3.93
2022-09-24T00:53:20.142Z,4.03
2022-09-24T00:56:10.999Z,3.60
2022-09-24T00:58:58.165Z,4.73
2022-09-24T01:01:44.838Z,3.70
2022-09-24T01:04:29.951Z,4.17
2022-09-24T01:07:15.324Z,4.90
2022-09-24T01:10:00.747Z,3.20
2022-09-24T01:13:06.811Z,4.07
2022-09-24T01:16:15.892Z,3.63
2022-09-24T01:19:43.787Z,4.07
2022-09-24T01:22:43.103Z,4.23
2022-09-24T01:25:28.653Z,4.53
2022-09-24T01:28:29.281Z,4.10
2022-09-24T01:31:47.208Z,3.93
2022-09-24T01:35:00.598Z,4.67
2022-09-24T01:37:52.304Z,5.38
2022-09-24T01:40:39.943Z,5.07
2022-09-24T01:43:27.841Z,3.80
2022-09-24T01:46:16.986Z,3.93
2022-09-24T01:49:02.117Z,2.90
2022-09-24T01:51:52.290Z,3.37
2022-09-24T01:54:43.029Z,3.53
2022-09-24T01:57:33.815Z,3.27
2022-09-24T02:00:21.547Z,3.80
2022-09-24T02:03:13.068Z,5.70
2022-09-24T02:06:11.955Z,3.77
2022-09-24T02:08:58.763Z,5.23
2022-09-24T02:11:44.377Z,3.37
2022-09-24T02:14:32.549Z,4.03
2022-09-24T02:17:18.869Z,2.90
2022-09-24T02:20:12.391Z,4.30
2022-09-24T02:22:57.849Z,4.27
2022-09-24T02:25:59.732Z,4.70
2022-09-24T02:28:45.635Z,4.93
2022-09-24T02:31:34.849Z,4.43
2022-09-24T02:34:27.582Z,3.00
2022-09-24T02:37:15.332Z,3.33
2022-09-24T02:40:00.753Z,4.87
2022-09-24T02:42:46.053Z,4.07
2022-09-24T02:45:32.249Z,3.77
2022-09-24T02:48:21.796Z,3.13
2022-09-24T02:51:07.279Z,2.90
2022-09-24T02:53:52.907Z,3.80
2022-09-24T02:56:38.731Z,3.77
2022-09-24T02:59:24.019Z,3.30
2022-09-24T03:02:09.418Z,3.17
2022-09-24T03:04:55.724Z,2.90
2022-09-24T03:07:41.524Z,3.27
2022-09-24T03:10:27.011Z,3.10
2022-09-24T03:13:12.614Z,3.30
2022-09-24T03:15:58.393Z,3.47
2022-09-24T03:18:43.937Z,4.87
2022-09-24T03:21:29.898Z,3.47
2022-09-24T03:24:15.396Z,3.23
2022-09-24T03:27:00.643Z,5.23
2022-09-24T03:30:04.467Z,4.40
2022-09-24T03:32:49.657Z,3.67
2022-09-24T03:35:34.844Z,2.70
2022-09-24T03:38:20.269Z,4.40
2022-09-24T03:41:07.612Z,4.13
2022-09-24T03:43:53.315Z,3.60
2022-09-24T03:46:38.885Z,2.93
2022-09-24T03:49:24.473Z,3.37
2022-09-24T03:52:09.996Z,3.57
2022-09-24T03:54:55.391Z,3.00
2022-09-24T03:57:41.065Z,2.67
2022-09-24T04:00:27.636Z,4.80
2022-09-24T04:03:13.314Z,3.50
2022-09-24T04:05:58.748Z,2.40
2022-09-24T04:08:44.347Z,3.07
2022-09-24T04:11:29.532Z,2.50
2022-09-24T04:14:15.400Z,3.00
2022-09-24T04:17:00.636Z,3.00
2022-09-24T04:19:45.824Z,2.57
2022-09-24T04:22:31.296Z,2.67
2022-09-24T04:25:17.815Z,3.30
2022-09-24T04:28:07.136Z,2.70
2022-09-24T04:30:52.688Z,3.90
2022-09-24T04:33:37.824Z,3.53
2022-09-24T04:36:23.184Z,3.03
2022-09-24T04:39:08.488Z,2.70
2022-09-24T04:41:54.530Z,4.60
2022-09-24T04:44:40.504Z,2.63
2022-09-24T04:47:25.968Z,2.93
2022-09-24T04:50:11.785Z,2.77
2022-09-24T04:52:56.955Z,3.30
2022-09-24T04:55:42.543Z,3.53
2022-09-24T04:58:28.487Z,2.40
2022-09-24T05:01:13.898Z,2.40
2022-09-24T05:03:59.439Z,4.37
2022-09-24T05:06:44.829Z,3.30
2022-09-24T05:09:31.888Z,2.83
2022-09-24T05:12:19.024Z,3.27
2022-09-24T05:15:05.084Z,4.27
2022-09-24T05:17:50.787Z,2.20
2022-09-24T05:20:35.885Z,3.60
2022-09-24T05:23:21.108Z,2.47
2022-09-24T05:26:24.878Z,5.67
2022-09-24T05:29:10.182Z,2.10
2022-09-24T05:31:55.543Z,4.40
2022-09-24T05:34:43.663Z,3.07
2022-09-24T05:37:29.608Z,3.80
2022-09-24T05:40:34.231Z,2.10
2022-09-24T05:43:20.083Z,3.50
2022-09-24T05:46:06.652Z,2.80
2022-09-24T05:48:53.020Z,4.33
2022-09-24T05:51:38.629Z,3.33
2022-09-24T05:54:24.097Z,2.60
2022-09-24T05:57:09.850Z,5.17
2022-09-24T05:59:54.993Z,6.73
2022-09-24T06:02:40.515Z,4.17
2022-09-24T06:05:26.227Z,8.23
2022-09-24T06:08:12.096Z,8.13
2022-09-24T06:11:02.762Z,7.90
2022-09-24T06:13:49.732Z,9.57
2022-09-24T06:16:36.430Z,8.47
2022-09-24T06:19:21.647Z,7.03
2022-09-24T06:22:06.996Z,6.30
2022-09-24T06:24:52.284Z,5.43
2022-09-24T06:27:37.650Z,7.57
2022-09-24T06:30:23.025Z,6.17
2022-09-24T06:33:10.939Z,5.80
2022-09-24T06:36:00.962Z,6.00
2022-09-24T06:38:51.578Z,5.63
2022-09-24T06:41:36.823Z,7.57
2022-09-24T06:44:22.180Z,6.97
2022-09-24T06:47:07.871Z,6.97
2022-09-24T06:49:52.988Z,7.53
2022-09-24T06:52:38.352Z,10.20
2022-09-24T06:55:23.639Z,7.57
2022-09-24T06:58:20.961Z,7.77
2022-09-24T07:01:07.262Z,7.80
2022-09-24T07:03:52.436Z,9.17
2022-09-24T07:06:56.298Z,8.53
2022-09-24T07:09:41.600Z,5.82
2022-09-24T07:16:27.971Z,8.17
2022-09-24T07:19:13.632Z,8.27
2022-09-24T07:21:58.916Z,8.53
2022-09-24T07:24:44.356Z,8.67
2022-09-24T07:27:30.230Z,8.13
2022-09-24T07:30:16.419Z,10.27
2022-09-24T07:33:04.188Z,6.50
2022-09-24T07:35:49.593Z,7.40
2022-09-24T07:38:36.442Z,6.23
2022-09-24T07:41:21.667Z,9.07
2022-09-24T07:44:07.938Z,7.93
2022-09-24T07:46:53.512Z,6.40
2022-09-24T07:49:39.067Z,7.07
2022-09-24T07:52:24.281Z,8.30
2022-09-24T07:55:09.749Z,5.17
2022-09-24T07:57:55.729Z,7.40
2022-09-24T08:00:41.605Z,9.73
2022-09-24T08:03:27.815Z,6.03
2022-09-24T08:06:15.316Z,6.63
2022-09-24T08:09:02.263Z,7.40
2022-09-24T08:11:50.073Z,10.43
2022-09-24T08:14:35.841Z,12.00
2022-09-24T08:17:21.452Z,14.37
2022-09-24T08:20:07.694Z,17.80
2022-09-24T08:22:52.802Z,14.93
2022-09-24T08:25:38.556Z,15.57
2022-09-24T08:28:24.232Z,16.77
2022-09-24T08:31:13.165Z,15.70
2022-09-24T08:33:58.822Z,19.60
2022-09-24T08:36:44.159Z,21.70
2022-09-24T08:39:29.304Z,17.73
2022-09-24T08:42:30.112Z,18.60
2022-09-24T08:45:36.025Z,21.27
2022-09-24T08:48:27.073Z,19.13
2022-09-24T08:51:18.033Z,20.07
2022-09-24T08:54:09.962Z,22.33
2022-09-24T08:56:57.403Z,18.90
2022-09-24T08:59:47.028Z,19.60
2022-09-24T09:03:03.502Z,18.47
2022-09-24T09:06:04.705Z,17.43
2022-09-24T09:09:07.143Z,15.17
2022-09-24T09:12:04.438Z,19.92
2022-09-24T09:14:59.474Z,17.10
2022-09-24T09:17:53.107Z,16.17
2022-09-24T09:20:44.645Z,15.55
2022-09-24T09:23:41.822Z,16.83
2022-09-24T09:26:27.459Z,14.77
2022-09-24T09:29:12.592Z,13.50
2022-09-24T09:32:19.613Z,13.30
2022-09-24T09:35:23.837Z,16.43
2022-09-24T09:38:28.055Z,14.20
2022-09-24T09:41:49.361Z,11.37
2022-09-24T09:44:44.566Z,16.60
2022-09-24T09:47:53.588Z,14.00
2022-09-24T09:50:52.270Z,12.50
2022-09-24T09:53:38.046Z,13.37
2022-09-24T09:56:26.159Z,14.47
2022-09-24T09:59:11.487Z,13.27
2022-09-24T10:01:57.706Z,13.33
2022-09-24T10:04:43.801Z,14.17
2022-09-24T10:07:31.700Z,12.20
2022-09-24T10:10:24.182Z,13.50
2022-09-24T10:13:12.661Z,12.50
2022-09-24T10:16:01.364Z,12.10
2022-09-24T10:18:50.331Z,13.07
2022-09-24T10:21:37.392Z,12.27
2022-09-24T10:24:25.496Z,9.37
2022-09-24T10:27:25.813Z,12.43
2022-09-24T10:30:34.749Z,11.57
2022-09-24T10:33:20.554Z,9.90
2022-09-24T10:36:13.938Z,10.97
2022-09-24T10:39:11.457Z,9.18
2022-09-24T10:41:58.301Z,9.70
2022-09-24T10:44:44.823Z,9.63
2022-09-24T10:47:48.420Z,8.10
2022-09-24T10:50:55.872Z,10.67
2022-09-24T10:54:07.695Z,13.60
2022-09-24T10:56:57.196Z,11.53
2022-09-24T11:00:03.824Z,10.07
2022-09-24T11:03:15.676Z,10.93
2022-09-24T11:06:05.068Z,8.03
2022-09-24T11:09:04.764Z,9.30
2022-09-24T11:12:24.797Z,9.10
2022-09-24T11:15:29.517Z,10.97
2022-09-24T11:18:29.746Z,9.57
2022-09-24T11:21:21.384Z,9.93
2022-09-24T11:24:15.629Z,8.20
2022-09-24T11:27:19.502Z,9.60
2022-09-24T11:33:20.743Z,6.77
2022-09-24T11:36:13.916Z,7.73
2022-09-24T11:39:37.040Z,8.93
2022-09-24T11:42:37.682Z,6.87
2022-09-24T11:45:37.838Z,6.90
2022-09-24T11:48:55.585Z,7.67
2022-09-24T11:52:00.447Z,6.67
2022-09-24T11:54:59.344Z,8.33
2022-09-24T11:58:09.422Z,7.90
2022-09-24T12:01:03.475Z,8.87
2022-09-24T12:04:07.494Z,8.40
2022-09-24T12:07:16.664Z,9.97
2022-09-24T12:10:29.694Z,7.30
2022-09-24T12:13:29.132Z,8.13
2022-09-24T12:16:19.719Z,6.87
2022-09-24T12:19:27.168Z,7.70
2022-09-24T12:22:14.576Z,6.93
2022-09-24T12:25:00.743Z,7.87
2022-09-24T12:27:47.882Z,7.13
2022-09-24T12:31:30.554Z,7.87
2022-09-24T12:34:54.078Z,8.53
2022-09-24T12:37:42.309Z,7.78
2022-09-24T12:40:55.433Z,7.73
2022-09-24T12:43:51.251Z,6.95
2022-09-24T12:46:48.588Z,6.00
2022-09-24T12:49:37.185Z,7.10
2022-09-24T12:52:28.465Z,6.83
2022-09-24T12:55:21.445Z,5.87
2022-09-24T12:58:24.651Z,4.80
2022-09-24T13:01:25.590Z,7.10
2022-09-24T13:04:14.132Z,6.20
2022-09-24T13:06:59.748Z,5.73
2022-09-24T13:09:45.028Z,5.37
2022-09-24T13:12:33.228Z,6.13
2022-09-24T13:15:28.464Z,5.70
2022-09-24T13:18:13.594Z,7.80
2022-09-24T13:21:00.908Z,6.87
2022-09-24T13:23:48.803Z,5.77
2022-09-24T13:26:34.531Z,5.57
2022-09-24T13:29:25.981Z,5.50
2022-09-24T13:32:19.231Z,5.80
2022-09-24T13:35:11.260Z,4.40
2022-09-24T13:38:09.098Z,4.97
2022-09-24T13:41:01.789Z,5.33
2022-09-24T13:44:07.313Z,5.85
2022-09-24T13:47:01.813Z,4.33
2022-09-24T13:49:50.305Z,4.77
2022-09-24T13:52:45.493Z,5.43
2022-09-24T13:55:44.268Z,5.60
2022-09-24T13:58:31.524Z,4.57
2022-09-24T14:01:20.572Z,4.57
2022-09-24T14:04:22.824Z,6.67
2022-09-24T14:07:08.093Z,4.90
2022-09-24T14:10:26.182Z,5.73
2022-09-24T14:13:22.683Z,4.87
2022-09-24T14:16:10.354Z,5.67
2022-09-24T14:19:04.346Z,4.70
2022-09-24T14:21:55.082Z,5.73
2022-09-24T14:24:45.963Z,4.80
2022-09-24T14:27:33.036Z,4.97
2022-09-24T14:30:19.758Z,4.77
2022-09-24T14:33:12.987Z,4.17
2022-09-24T14:36:00.980Z,4.78
2022-09-24T14:39:06.861Z,5.67
2022-09-24T14:41:53.297Z,6.33
2022-09-24T14:44:44.478Z,4.03
2022-09-24T14:47:34.772Z,5.40
2022-09-24T14:50:38.911Z,6.37
2022-09-24T14:53:29.641Z,4.95
2022-09-24T14:56:20.694Z,4.40
2022-09-24T14:59:14.944Z,6.50
2022-09-24T15:02:30.470Z,4.20
2022-09-24T15:05:16.302Z,4.13
2022-09-24T15:08:24.157Z,3.97
2022-09-24T15:11:18.068Z,4.93
2022-09-24T15:14:14.780Z,4.40
2022-09-24T15:17:21.609Z,3.83
2022-09-24T15:20:10.642Z,3.97
2022-09-24T15:22:56.631Z,3.83
2022-09-24T15:25:43.626Z,4.60
2022-09-24T15:28:29.610Z,3.47
2022-09-24T15:31:14.959Z,5.07
2022-09-24T15:34:00.269Z,3.50
2022-09-24T15:36:46.786Z,4.60
2022-09-24T15:39:32.079Z,3.83
2022-09-24T15:42:19.714Z,5.07
2022-09-24T15:45:15.283Z,4.00
2022-09-24T15:48:01.119Z,4.07
2022-09-24T15:50:47.441Z,4.17
2022-09-24T15:53:33.652Z,4.20
2022-09-24T15:56:19.641Z,3.57
2022-09-24T15:59:14.336Z,3.63
2022-09-24T16:02:02.736Z,4.67
2022-09-24T16:04:47.924Z,3.87
2022-09-24T16:07:33.283Z,4.50
2022-09-24T16:10:19.024Z,3.33
2022-09-24T16:13:05.789Z,3.83
2022-09-24T16:15:51.220Z,3.93
2022-09-24T16:18:38.088Z,4.13
2022-09-24T16:21:23.738Z,4.83
2022-09-24T16:24:09.189Z,3.63
2022-09-24T16:26:55.512Z,4.87
2022-09-24T16:29:40.735Z,3.70
2022-09-24T16:33:22.502Z,3.70
2022-09-24T16:36:09.279Z,4.30
2022-09-24T16:38:54.725Z,3.77
2022-09-24T16:41:40.035Z,4.10
2022-09-24T16:44:25.499Z,4.87
2022-09-24T16:47:10.810Z,3.77
2022-09-24T16:49:56.056Z,4.97
2022-09-24T16:52:42.883Z,3.33
2022-09-24T16:55:29.011Z,5.43
2022-09-24T16:58:14.307Z,3.90
2022-09-24T17:00:59.705Z,4.00
2022-09-24T17:03:50.925Z,4.30
2022-09-24T17:06:36.751Z,4.30
2022-09-24T17:09:40.983Z,3.93
2022-09-24T17:15:14.720Z,4.27
2022-09-24T17:17:59.935Z,3.73
2022-09-24T17:20:45.087Z,4.57
2022-09-24T17:23:30.669Z,3.87
2022-09-24T17:26:19.199Z,5.33
2022-09-24T17:29:05.585Z,3.87
2022-09-24T17:31:51.484Z,4.60
2022-09-24T17:34:36.931Z,4.03
2022-09-24T17:37:22.273Z,3.70
2022-09-24T17:40:08.057Z,3.87
2022-09-24T17:42:53.289Z,3.87
2022-09-24T17:45:39.572Z,4.33
2022-09-24T17:48:29.369Z,4.00
2022-09-24T17:51:22.058Z,5.87
2022-09-24T17:54:14.154Z,4.53
2022-09-24T17:57:00.578Z,4.23
2022-09-24T17:59:46.157Z,6.20
2022-09-24T18:02:31.757Z,4.03
2022-09-24T18:05:17.409Z,5.33
2022-09-24T18:08:02.907Z,4.53
2022-09-24T18:11:03.603Z,7.40
2022-09-24T18:13:54.819Z,5.93
2022-09-24T18:16:41.651Z,5.47
2022-09-24T18:19:27.073Z,7.17
2022-09-24T18:22:13.123Z,6.40
2022-09-24T18:25:00.871Z,6.27
2022-09-24T18:27:46.781Z,5.93
2022-09-24T18:30:32.368Z,6.27
2022-09-24T18:33:18.138Z,6.90
2022-09-24T18:36:05.885Z,5.33
2022-09-24T18:38:52.381Z,5.50
2022-09-24T18:41:37.751Z,6.27
2022-09-24T18:44:22.985Z,6.40
2022-09-24T18:47:08.525Z,6.50
2022-09-24T18:49:54.138Z,6.43
2022-09-24T18:52:39.755Z,6.20
2022-09-24T18:55:26.039Z,7.10
2022-09-24T18:58:11.665Z,7.83
2022-09-24T19:01:02.110Z,6.17
2022-09-24T19:03:47.642Z,6.67
2022-09-24T19:06:35.163Z,6.13
2022-09-24T19:09:21.090Z,6.20
2022-09-24T19:12:08.814Z,7.50
2022-09-24T19:14:54.407Z,7.23
2022-09-24T19:17:41.439Z,6.87
2022-09-24T19:20:31.069Z,8.50
2022-09-24T19:23:17.458Z,6.63
2022-09-24T19:26:05.241Z,7.93
2022-09-24T19:28:53.305Z,6.67
2022-09-24T19:31:43.397Z,12.90
2022-09-24T19:34:30.850Z,9.00
2022-09-24T19:37:17.019Z,7.40
2022-09-24T19:40:02.450Z,5.40
2022-09-24T19:42:50.678Z,7.67
2022-09-24T19:45:37.910Z,13.57
2022-09-24T19:48:25.407Z,8.60
2022-09-24T19:51:14.950Z,6.70
2022-09-24T19:54:06.809Z,8.70
2022-09-24T19:56:54.709Z,8.23
2022-09-24T19:59:40.448Z,9.80
2022-09-24T20:02:27.979Z,11.50
2022-09-24T20:05:13.748Z,8.43
2022-09-24T20:07:59.537Z,8.10
2022-09-24T20:10:47.343Z,6.30
2022-09-24T20:13:34.000Z,6.93
2022-09-24T20:16:26.452Z,8.57
2022-09-24T20:19:12.828Z,9.20
2022-09-24T20:21:59.179Z,6.53
2022-09-24T20:24:44.316Z,6.87
2022-09-24T20:27:48.237Z,6.67
2022-09-24T20:30:37.808Z,11.30
2022-09-24T20:33:23.421Z,10.13
2022-09-24T20:36:15.909Z,9.63
2022-09-24T20:39:03.890Z,5.55
2022-09-24T20:41:49.530Z,7.03
2022-09-24T20:44:35.125Z,8.93
2022-09-24T20:47:21.169Z,6.00
2022-09-24T20:50:07.531Z,6.43
2022-09-24T20:52:53.686Z,6.57
2022-09-24T20:55:39.643Z,7.23
2022-09-24T20:58:25.136Z,7.93
2022-09-24T21:01:11.096Z,6.10
2022-09-24T21:03:57.618Z,7.40
2022-09-24T21:06:43.124Z,5.87
2022-09-24T21:09:28.834Z,6.70
2022-09-24T21:12:14.574Z,8.20
2022-09-24T21:15:00.032Z,5.63
2022-09-24T21:18:05.140Z,6.03
2022-09-24T21:20:51.709Z,10.10
2022-09-24T21:23:38.537Z,10.00
2022-09-24T21:26:27.477Z,7.37
2022-09-24T21:29:20.726Z,8.90
2022-09-24T21:32:06.253Z,7.60
2022-09-24T21:34:51.424Z,13.77
2022-09-24T21:37:38.955Z,6.80
2022-09-24T21:40:24.553Z,11.20
2022-09-24T21:43:09.830Z,5.40
2022-09-24T21:46:03.282Z,6.17
2022-09-24T21:48:48.770Z,5.15
2022-09-24T21:51:34.401Z,6.47
2022-09-24T21:54:20.212Z,7.03
2022-09-24T21:57:06.051Z,6.77
2022-09-24T22:00:00.357Z,6.70
2022-09-24T22:02:45.893Z,7.93
2022-09-24T22:05:32.364Z,7.93
2022-09-24T22:08:18.989Z,6.17
2022-09-24T22:11:09.756Z,4.57
2022-09-24T22:14:00.998Z,5.27
2022-09-24T22:16:46.264Z,5.43
2022-09-24T22:19:31.677Z,7.67
2022-09-24T22:22:17.263Z,7.93
2022-09-24T22:25:02.427Z,6.47
2022-09-24T22:27:47.672Z,5.70
2022-09-24T22:30:33.168Z,7.80
2022-09-24T22:33:37.507Z,10.60
2022-09-24T22:36:23.606Z,5.23
2022-09-24T22:39:09.799Z,6.53
2022-09-24T22:41:55.085Z,5.87
2022-09-24T22:44:40.520Z,6.87
2022-09-24T22:47:26.035Z,8.23
2022-09-24T22:50:11.508Z,4.27
2022-09-24T22:52:56.841Z,5.97
2022-09-24T22:55:42.111Z,7.97
2022-09-24T22:58:28.065Z,8.37
2022-09-24T23:01:21.703Z,5.10
2022-09-24T23:04:07.245Z,10.45
2022-09-24T23:06:52.506Z,6.27
2022-09-24T23:09:37.871Z,13.47
2022-09-24T23:12:23.118Z,6.87
2022-09-24T23:15:08.844Z,7.17
2022-09-24T23:17:55.127Z,5.70
2022-09-24T23:20:40.654Z,8.03
2022-09-24T23:23:25.968Z,5.63
2022-09-24T23:26:17.742Z,7.30
2022-09-24T23:29:03.677Z,6.43
2022-09-24T23:31:48.978Z,5.87
2022-09-24T23:34:34.815Z,10.97
2022-09-24T23:37:20.151Z,5.67
2022-09-24T23:40:06.045Z,6.20
2022-09-24T23:42:52.266Z,6.07
2022-09-24T23:45:37.786Z,6.33
2022-09-24T23:48:24.164Z,7.27
2022-09-24T23:51:09.935Z,6.30
2022-09-24T23:53:55.519Z,7.57
2022-09-24T23:56:40.839Z,8.77
2022-09-24T23:59:25.997Z,9.43
